Time;durP1;ratioP1;P1;durP2;ratioP2;P2;SDS_P1;SDS_P2;PMS_P1;PMS_P2;Temp;Humidity;BMP_temperature;BMP_pressure;BME280_temperature;BME280_humidity;BME280_pressure;Samples;Min_cycle;Max_cycle;Signal;HPM_P1;HPM_P2
2022/09/11 00:00:20;;;;;;;4.01;2.56;;;;;;;13.36;43.92;101317.64;453678;117;922848;-72
2022/09/11 00:01:23;;;;;;;3.42;2.84;;;;;;;13.37;43.99;101321.23;453717;117;922431;-72
2022/09/11 00:02:26;;;;;;;4.34;2.49;;;;;;;13.36;43.89;101319.54;453791;117;922693;-72
2022/09/11 00:03:30;;;;;;;3.47;2.62;;;;;;;13.35;43.85;101315.95;453814;117;922930;-71
2022/09/11 00:04:33;;;;;;;3.56;2.81;;;;;;;13.35;43.81;101309.63;453707;117;922542;-72
2022/09/11 00:05:40;;;;;;;3.27;2.96;;;;;;;13.35;43.75;101317.85;453808;117;922503;-72
2022/09/11 00:06:43;;;;;;;4.60;3.01;;;;;;;13.34;43.75;101314.27;456877;116;923042;-72
2022/09/11 00:07:46;;;;;;;3.36;2.58;;;;;;;13.33;43.80;101318.09;457833;116;922552;-73
2022/09/11 00:08:59;;;;;;;2.76;2.56;;;;;;;13.34;43.72;101318.94;457881;116;922568;-72
2022/09/11 00:10:00;;;;;;;4.33;2.73;;;;;;;13.32;43.70;101316.41;457110;114;923074;-73
2022/09/11 00:11:07;;;;;;;5.42;3.18;;;;;;;13.32;43.74;101318.30;457832;116;922545;-73
2022/09/11 00:12:11;;;;;;;4.32;2.59;;;;;;;13.33;43.70;101318.09;457619;116;922967;-72
2022/09/11 00:13:20;;;;;;;4.88;2.76;;;;;;;13.32;43.71;101315.55;457752;116;922544;-72
2022/09/11 00:14:27;;;;;;;3.32;2.79;;;;;;;13.31;43.71;101316.61;457577;116;923075;-73
2022/09/11 00:15:28;;;;;;;5.68;3.24;;;;;;;13.32;43.68;101323.77;456523;114;923117;-72
2022/09/11 00:16:35;;;;;;;3.04;2.78;;;;;;;13.31;43.62;101322.93;454387;116;922608;-72
2022/09/11 00:17:38;;;;;;;3.04;2.74;;;;;;;13.30;43.55;101325.88;454096;116;922836;-72
2022/09/11 00:18:41;;;;;;;3.38;2.87;;;;;;;13.29;43.58;101318.71;454288;116;922513;-72
2022/09/11 00:19:44;;;;;;;5.08;3.11;;;;;;;13.28;43.57;101320.64;454325;116;922528;-72
2022/09/11 00:20:52;;;;;;;3.66;3.16;;;;;;;13.28;43.57;101312.42;454359;116;922506;-72
2022/09/11 00:21:56;;;;;;;3.18;2.58;;;;;;;13.28;43.57;101319.79;453674;116;922498;-72
2022/09/11 00:23:03;;;;;;;3.56;2.85;;;;;;;13.27;43.61;101320.84;454278;116;922839;-72
2022/09/11 00:24:08;;;;;;;3.52;3.16;;;;;;;13.26;43.59;101310.94;454105;116;922598;-72
2022/09/11 00:25:11;;;;;;;4.44;2.91;;;;;;;13.25;43.60;101317.47;454081;116;922543;-72
2022/09/11 00:26:20;;;;;;;3.46;2.98;;;;;;;13.24;43.62;101313.03;454159;116;922553;-72
2022/09/11 00:27:23;;;;;;;4.33;3.14;;;;;;;13.23;43.62;101312.19;454037;116;930424;-72
2022/09/11 00:28:26;;;;;;;3.39;3.09;;;;;;;13.22;43.64;101309.69;454318;116;922605;-72
2022/09/11 00:29:29;;;;;;;3.63;3.04;;;;;;;13.21;43.57;101306.11;454263;116;923143;-72
2022/09/11 00:30:33;;;;;;;4.20;2.68;;;;;;;13.21;43.61;101308.00;453723;117;922548;-73
2022/09/11 00:31:36;;;;;;;3.50;2.58;;;;;;;13.21;43.60;101306.11;459535;115;922887;-73
2022/09/11 00:32:40;;;;;;;3.56;3.26;;;;;;;13.20;43.74;101301.68;460750;115;922677;-71
2022/09/11 00:33:43;;;;;;;3.27;2.97;;;;;;;13.20;43.71;101301.68;458920;115;930530;-73
2022/09/11 00:34:46;;;;;;;4.59;2.62;;;;;;;13.20;43.64;101300.84;448882;118;922481;-73
2022/09/11 00:35:58;;;;;;;3.24;2.92;;;;;;;13.19;43.64;101310.95;448928;118;931071;-73
2022/09/11 00:37:02;;;;;;;3.76;2.81;;;;;;;13.19;43.67;101293.67;448660;118;922503;-72
2022/09/11 00:38:07;;;;;;;4.83;3.16;;;;;;;13.18;43.48;101309.25;448859;118;923010;-72
2022/09/11 00:39:11;;;;;;;4.82;3.01;;;;;;;13.18;43.48;101309.25;448742;118;931053;-72
2022/09/11 00:40:16;;;;;;;4.13;3.13;;;;;;;13.18;43.85;101308.41;448906;118;922548;-72
2022/09/11 00:41:28;;;;;;;4.61;3.06;;;;;;;13.18;43.86;101302.94;448801;118;922401;-72
2022/09/11 00:42:31;;;;;;;3.46;3.01;;;;;;;13.18;43.90;101305.67;448767;118;922516;-72
2022/09/11 00:43:54;;;;;;;3.98;3.08;;;;;;;13.17;43.94;101310.34;448988;118;922743;-72
2022/09/11 00:45:00;;;;;;;4.45;3.02;;;;;;;13.18;43.90;101309.25;448741;118;923157;-72
2022/09/11 00:46:04;;;;;;;2.88;2.66;;;;;;;13.18;43.92;101309.25;448795;118;922980;-72
2022/09/11 00:47:08;;;;;;;4.04;3.34;;;;;;;13.18;43.96;101305.67;448789;118;922537;-72
2022/09/11 00:48:15;;;;;;;3.85;3.08;;;;;;;13.18;43.99;101308.41;448836;118;930550;-73
2022/09/11 00:49:31;;;;;;;3.53;2.98;;;;;;;13.18;44.00;101302.94;448754;118;923095;-73
2022/09/11 00:50:35;;;;;;;4.86;3.24;;;;;;;13.18;43.98;101301.05;448758;118;922924;-72
2022/09/11 00:51:39;;;;;;;3.74;3.04;;;;;;;13.18;43.98;101302.94;448977;118;922972;-73
2022/09/11 00:52:49;;;;;;;3.85;2.78;;;;;;;13.18;43.95;101292.83;448764;118;922440;-72
2022/09/11 00:53:57;;;;;;;5.26;2.97;;;;;;;13.18;44.03;101292.83;448721;118;930526;-72
2022/09/11 00:55:09;;;;;;;5.09;2.67;;;;;;;13.18;43.98;101292.83;448830;118;922632;-73
2022/09/11 00:56:13;;;;;;;6.00;2.99;;;;;;;13.18;43.98;101292.83;448790;118;922749;-73
2022/09/11 00:57:20;;;;;;;3.57;3.21;;;;;;;13.18;43.96;101289.24;448966;118;922517;-73
2022/09/11 00:58:26;;;;;;;4.24;2.91;;;;;;;13.18;43.97;101290.09;449416;116;923196;-73
2022/09/11 00:59:32;;;;;;;5.57;2.88;;;;;;;13.18;43.97;101291.98;451769;117;922516;-73
2022/09/11 01:00:38;;;;;;;3.95;2.61;;;;;;;13.18;44.00;101292.83;457750;116;923159;-73
2022/09/11 01:01:42;;;;;;;3.82;2.91;;;;;;;13.17;44.00;101293.91;451789;117;922489;-73
2022/09/11 01:02:48;;;;;;;7.80;2.79;;;;;;;13.17;44.05;101293.06;456885;116;922615;-73
2022/09/11 01:03:51;;;;;;;2.43;2.23;;;;;;;13.18;43.93;101294.72;456276;116;922842;-73
2022/09/11 01:04:55;;;;;;;3.11;2.65;;;;;;;13.17;43.85;101295.80;456417;116;923508;-73
2022/09/11 01:05:59;;;;;;;2.93;2.68;;;;;;;13.16;43.82;101288.64;456173;116;923596;-72
2022/09/11 01:07:03;;;;;;;13.22;3.15;;;;;;;13.16;43.83;101283.16;456460;115;922910;-72
2022/09/11 01:08:07;;;;;;;3.72;2.49;;;;;;;13.15;43.83;101286.95;456469;116;922811;-72
2022/09/11 01:09:10;;;;;;;8.52;2.91;;;;;;;13.15;43.83;101286.95;453475;117;923013;-73
2022/09/11 01:10:14;;;;;;;6.95;3.15;;;;;;;13.14;43.88;101282.52;453477;117;922989;-73
2022/09/11 01:11:32;;;;;;;4.24;2.31;;;;;;;13.13;43.79;101287.16;453511;117;922980;-72
2022/09/11 01:12:55;;;;;;;2.85;2.52;;;;;;;13.13;43.72;101286.31;453532;116;923101;-73
2022/09/11 01:14:11;;;;;;;4.42;2.68;;;;;;;13.11;43.71;101291.15;453347;117;922615;-73
2022/09/11 01:15:20;;;;;;;3.34;2.73;;;;;;;13.08;43.68;101284.19;453058;117;922566;-73
2022/09/11 01:16:39;;;;;;;5.21;2.57;;;;;;;13.05;43.68;101287.37;450498;117;922489;-73
2022/09/11 01:17:55;;;;;;;2.37;2.17;;;;;;;13.05;43.65;101283.79;450537;117;922502;-73
2022/09/11 01:19:19;;;;;;;4.42;2.84;;;;;;;13.03;43.61;101285.88;450547;117;923072;-73
2022/09/11 01:20:28;;;;;;;4.54;2.73;;;;;;;13.01;43.64;101282.54;450011;117;923047;-73
2022/09/11 01:21:53;;;;;;;4.58;2.79;;;;;;;12.98;43.60;101288.42;450521;117;922560;-73
2022/09/11 01:23:01;;;;;;;2.72;2.37;;;;;;;12.96;43.62;101288.63;449905;117;922494;-74
2022/09/11 01:24:25;;;;;;;2.68;2.48;;;;;;;12.93;43.64;101292.65;442394;120;922621;-72
2022/09/11 01:26:00;;;;;;;2.26;2.09;;;;;;;12.91;43.66;101283.80;445234;117;922714;-72
2022/09/11 01:27:29;;;;;;;3.13;2.39;;;;;;;12.90;43.66;101284.03;450498;117;922873;-72
2022/09/11 01:28:39;;;;;;;3.53;2.80;;;;;;;12.87;43.67;101281.70;450046;117;923026;-72
2022/09/11 01:29:45;;;;;;;2.77;2.32;;;;;;;12.83;43.68;101278.56;450777;117;922630;-72
2022/09/11 01:30:55;;;;;;;5.53;2.78;;;;;;;12.82;43.70;101286.98;453141;116;922522;-72
2022/09/11 01:32:11;;;;;;;3.84;2.71;;;;;;;12.81;43.69;101279.81;455439;116;922641;-73
2022/09/11 01:33:33;;;;;;;3.27;2.36;;;;;;;12.81;43.70;101279.81;434559;122;923300;-72
2022/09/11 01:34:59;;;;;;;2.39;2.13;;;;;;;12.90;43.65;101282.11;472497;110;946835;-72
2022/09/11 01:36:08;;;;;;;2.91;2.61;;;;;;;12.78;43.69;101280.26;463630;114;922458;-72
2022/09/11 01:37:18;;;;;;;2.56;2.33;;;;;;;12.77;43.61;101287.63;463622;114;922526;-72
2022/09/11 01:38:25;;;;;;;2.94;2.33;;;;;;;12.75;43.61;101292.45;463125;114;922493;-73
2022/09/11 01:39:31;;;;;;;3.40;2.31;;;;;;;12.75;43.59;101283.40;463607;114;922634;-73
2022/09/11 01:40:41;;;;;;;2.53;2.21;;;;;;;12.75;43.64;101284.24;463628;114;922861;-73
2022/09/11 01:41:48;;;;;;;2.92;2.03;;;;;;;12.75;43.55;101286.13;458712;114;923298;-73
2022/09/11 01:42:54;;;;;;;2.31;2.11;;;;;;;12.76;43.57;101296.03;463641;114;922982;-73
2022/09/11 01:44:05;;;;;;;4.16;2.39;;;;;;;12.76;43.54;101293.30;463470;114;922486;-73
2022/09/11 01:45:12;;;;;;;2.91;2.26;;;;;;;12.76;43.57;101287.83;463607;114;922520;-73
2022/09/11 01:46:21;;;;;;;2.54;2.28;;;;;;;12.77;43.60;101290.36;463625;114;922476;-72
2022/09/11 01:47:26;;;;;;;3.70;2.64;;;;;;;12.76;43.70;101285.09;453847;116;922824;-72
2022/09/11 01:48:32;;;;;;;2.86;2.58;;;;;;;12.75;43.61;101284.24;454608;114;923053;-72
2022/09/11 01:49:39;;;;;;;2.44;2.12;;;;;;;12.76;43.58;101288.67;463399;114;930302;-72
2022/09/11 01:50:46;;;;;;;3.38;1.82;;;;;;;12.76;43.66;101285.94;463322;114;922665;-72
2022/09/11 01:51:54;;;;;;;5.23;2.37;;;;;;;12.75;43.56;101278.77;463534;114;922502;-72
2022/09/11 01:53:01;;;;;;;4.44;2.27;;;;;;;12.75;43.59;101278.77;463556;114;922553;-72
2022/09/11 01:54:07;;;;;;;3.86;2.39;;;;;;;12.76;43.60;101276.88;463467;114;922707;-72
2022/09/11 01:55:17;;;;;;;6.44;2.73;;;;;;;12.76;43.63;101282.35;461788;114;922846;-71
2022/09/11 01:56:23;;;;;;;;;;;;;;;12.75;43.64;101276.03;467481;114;922129;-72
2022/09/11 01:57:41;;;;;;;3.17;2.15;;;;;;;12.75;43.66;101275.19;463382;114;922382;-73
2022/09/11 01:58:46;;;;;;;3.78;2.42;;;;;;;12.73;43.74;101274.58;450604;116;923290;-72
2022/09/11 01:59:53;;;;;;;2.24;2.03;;;;;;;12.70;43.76;101278.56;446800;116;923485;-72
2022/09/11 02:01:00;;;;;;;2.91;2.44;;;;;;;12.68;43.78;101271.64;455519;116;922866;-72
2022/09/11 02:02:08;;;;;;;2.83;2.16;;;;;;;12.66;43.80;101280.05;455561;116;923075;-72
2022/09/11 02:03:15;;;;;;;4.06;2.18;;;;;;;12.65;43.85;101272.89;455509;116;922685;-72
2022/09/11 02:04:21;;;;;;;2.95;2.54;;;;;;;12.65;43.85;101272.89;455347;116;923174;-72
2022/09/11 02:05:40;;;;;;;2.22;2.02;;;;;;;12.65;43.91;101261.95;455529;116;922855;-72
2022/09/11 02:06:47;;;;;;;3.91;2.46;;;;;;;12.66;43.96;101269.11;455447;116;922567;-73
2022/09/11 02:07:58;;;;;;;3.28;2.04;;;;;;;12.63;43.94;101266.77;455563;116;922706;-73
2022/09/11 02:09:05;;;;;;;2.74;2.11;;;;;;;12.63;43.98;101274.98;455526;116;922473;-73
2022/09/11 02:10:13;;;;;;;4.31;2.57;;;;;;;12.61;44.01;101260.70;455439;116;922985;-73
2022/09/11 02:11:17;;;;;;;2.76;2.02;;;;;;;12.60;44.11;101256.27;455553;116;922666;-73
2022/09/11 02:12:23;;;;;;;4.14;2.24;;;;;;;12.60;44.07;101267.22;455486;116;922653;-71
2022/09/11 02:13:52;;;;;;;2.63;2.23;;;;;;;12.59;44.09;101262.79;455555;116;922685;-74
2022/09/11 02:14:55;;;;;;;2.32;2.07;;;;;;;12.60;44.08;101263.63;455535;116;922616;-73
2022/09/11 02:16:08;;;;;;;3.80;2.41;;;;;;;12.59;44.07;101262.79;462530;114;922516;-73
2022/09/11 02:17:30;;;;;;;3.44;1.97;;;;;;;12.57;44.07;101262.15;462849;114;922549;-72
2022/09/11 02:18:46;;;;;;;2.93;2.25;;;;;;;12.57;44.15;101256.67;463121;114;923458;-73
2022/09/11 02:19:52;;;;;;;4.88;2.32;;;;;;;12.56;44.26;101251.44;463211;114;922735;-73
2022/09/11 02:20:57;;;;;;;3.11;2.04;;;;;;;12.54;44.18;101252.48;463588;114;922529;-72
2022/09/11 02:22:00;;;;;;;3.08;2.49;;;;;;;12.54;44.14;101260.69;463775;114;923097;-72
2022/09/11 02:23:05;;;;;;;4.49;2.62;;;;;;;12.54;44.09;101254.37;463807;114;923098;-72
2022/09/11 02:24:09;;;;;;;3.46;2.26;;;;;;;12.53;44.13;101255.42;463556;114;922481;-72
2022/09/11 02:25:12;;;;;;;4.07;2.41;;;;;;;12.54;44.06;101251.64;463708;114;922486;-72
2022/09/11 02:26:19;;;;;;;2.96;2.06;;;;;;;12.55;44.21;101247.86;463740;114;922586;-72
2022/09/11 02:27:26;;;;;;;3.94;2.38;;;;;;;12.55;44.21;101247.86;463582;114;922535;-72
2022/09/11 02:28:30;;;;;;;3.16;2.04;;;;;;;12.56;43.89;101244.08;463608;114;923086;-73
2022/09/11 02:29:34;;;;;;;4.46;2.18;;;;;;;12.58;43.85;101249.31;463237;114;922669;-73
2022/09/11 02:30:39;;;;;;;6.86;2.26;;;;;;;12.58;43.77;101241.95;455570;116;923054;-72
2022/09/11 02:31:42;;;;;;;5.69;2.88;;;;;;;12.60;43.69;101245.33;463011;114;930440;-72
2022/09/11 02:32:46;;;;;;;2.56;2.24;;;;;;;12.60;43.64;101242.59;463773;114;922600;-72
2022/09/11 02:33:50;;;;;;;2.46;1.90;;;;;;;12.62;43.59;101247.86;461675;114;930282;-72
2022/09/11 02:34:54;;;;;;;2.42;2.22;;;;;;;12.63;43.54;101250.36;455637;116;922483;-71
2022/09/11 02:36:01;;;;;;;3.55;2.14;;;;;;;12.64;43.54;101241.11;455569;116;922473;-72
2022/09/11 02:37:20;;;;;;;2.82;2.33;;;;;;;12.64;43.51;101241.11;454027;116;931054;-74
2022/09/11 02:38:32;;;;;;;5.83;2.19;;;;;;;12.65;43.47;101239.22;455007;116;922477;-72
2022/09/11 02:40:05;;;;;;;2.51;2.31;;;;;;;12.65;43.49;101245.53;438223;116;923414;-72
2022/09/11 02:41:16;;;;;;;2.22;2.02;;;;;;;12.65;43.47;101241.95;455509;116;922573;-73
2022/09/11 02:42:31;;;;;;;2.64;2.31;;;;;;;12.65;43.43;101250.16;455167;116;923024;-73
2022/09/11 02:43:50;;;;;;;2.79;1.58;;;;;;;12.64;43.53;101245.73;455532;116;930368;-73
2022/09/11 02:45:18;;;;;;;3.19;2.04;;;;;;;12.63;43.43;101244.05;455544;116;922697;-73
2022/09/11 02:46:43;;;;;;;2.34;1.90;;;;;;;12.63;43.41;101246.78;454575;116;922603;-73
2022/09/11 02:48:06;;;;;;;4.98;2.12;;;;;;;12.61;43.37;101238.81;455367;116;922568;-73
2022/09/11 02:49:18;;;;;;;2.44;2.13;;;;;;;12.60;43.38;101245.33;455402;116;922572;-72
2022/09/11 02:50:35;;;;;;;;;;;;;;;12.60;43.36;101245.33;459186;116;922105;-72
2022/09/11 02:51:50;;;;;;;5.43;1.85;;;;;;;12.59;43.34;101246.38;455383;116;922482;-73
2022/09/11 02:53:13;;;;;;;3.52;2.15;;;;;;;12.57;43.37;101243.00;453865;116;922990;-73
2022/09/11 02:54:44;;;;;;;2.70;2.21;;;;;;;12.54;43.47;101238.81;454684;114;923093;-72
2022/09/11 02:56:03;;;;;;;3.58;2.59;;;;;;;12.56;43.38;101248.70;455388;116;923035;-72
2022/09/11 02:57:25;;;;;;;2.52;1.74;;;;;;;12.57;43.37;101239.45;455408;116;922643;-73
2022/09/11 02:58:38;;;;;;;3.33;1.84;;;;;;;12.57;43.31;101240.27;455385;116;923014;-73
2022/09/11 02:59:55;;;;;;;3.08;2.04;;;;;;;12.58;43.31;101238.38;455399;116;922589;-72
2022/09/11 03:01:00;;;;;;;3.10;2.12;;;;;;;12.58;43.27;101244.69;455425;116;922445;-72
2022/09/11 03:02:07;;;;;;;7.53;2.33;;;;;;;12.59;43.22;101240.91;448452;118;922646;-72
2022/09/11 03:03:12;;;;;;;2.36;1.94;;;;;;;12.60;43.30;101239.02;449226;116;922599;-72
2022/09/11 03:04:17;;;;;;;2.69;1.81;;;;;;;12.61;43.21;101236.08;455505;116;923022;-72
2022/09/11 03:05:22;;;;;;;2.71;2.07;;;;;;;12.62;43.20;101235.03;455484;116;922460;-73
2022/09/11 03:06:26;;;;;;;2.19;2.01;;;;;;;12.64;43.15;101229.32;455593;116;922467;-73
2022/09/11 03:07:30;;;;;;;2.82;2.11;;;;;;;12.65;43.20;101231.85;455494;116;922727;-72
2022/09/11 03:08:33;;;;;;;2.58;1.97;;;;;;;12.67;43.29;101228.91;455569;116;922511;-73
2022/09/11 03:09:36;;;;;;;3.39;1.92;;;;;;;12.68;43.21;101231.41;455629;116;923032;-72
2022/09/11 03:10:41;;;;;;;6.94;2.38;;;;;;;12.69;43.21;101226.78;455128;116;923034;-73
2022/09/11 03:11:45;;;;;;;3.14;2.29;;;;;;;12.70;43.20;101226.58;455530;116;923103;-73
2022/09/11 03:12:48;;;;;;;5.71;2.30;;;;;;;12.70;43.15;101229.31;455566;116;923025;-73
2022/09/11 03:13:51;;;;;;;2.17;1.92;;;;;;;12.71;43.10;101217.32;455605;116;923026;-73
2022/09/11 03:14:56;;;;;;;2.37;1.95;;;;;;;12.71;43.07;101220.06;455536;116;922567;-73
2022/09/11 03:16:00;;;;;;;2.47;1.97;;;;;;;12.72;43.04;101212.69;462253;114;930358;-73
2022/09/11 03:17:03;;;;;;;3.27;2.14;;;;;;;12.73;43.07;101219.86;463516;114;922558;-73
2022/09/11 03:18:06;;;;;;;3.69;1.72;;;;;;;12.73;43.09;101217.96;463621;114;922585;-73
2022/09/11 03:19:11;;;;;;;2.41;1.76;;;;;;;12.72;43.06;101219.02;463498;114;922998;-73
2022/09/11 03:20:15;;;;;;;2.61;1.89;;;;;;;12.73;43.09;101212.49;463571;114;922467;-71
2022/09/11 03:21:18;;;;;;;5.16;2.19;;;;;;;12.74;43.08;101218.77;463666;114;922896;-73
2022/09/11 03:22:21;;;;;;;1.99;1.74;;;;;;;12.75;43.04;101213.09;463709;114;922467;-73
2022/09/11 03:23:24;;;;;;;8.56;2.33;;;;;;;12.75;43.05;101210.36;463603;114;922460;-73
2022/09/11 03:24:28;;;;;;;2.61;1.74;;;;;;;12.76;43.03;101214.78;463593;114;922527;-71
2022/09/11 03:25:31;;;;;;;3.61;1.98;;;;;;;12.77;43.01;101215.63;463618;114;922837;-74
2022/09/11 03:26:36;;;;;;;3.89;1.79;;;;;;;12.78;42.98;101218.16;463524;114;930362;-73
2022/09/11 03:27:39;;;;;;;2.21;1.85;;;;;;;12.78;42.91;101209.95;463514;114;930352;-73
2022/09/11 03:28:44;;;;;;;2.46;1.74;;;;;;;12.80;42.91;101216.03;463540;114;922410;-73
2022/09/11 03:29:49;;;;;;;3.39;2.27;;;;;;;12.80;42.91;101206.98;451238;116;930354;-72
2022/09/11 03:30:52;;;;;;;2.90;1.92;;;;;;;12.81;42.92;101217.72;447723;114;922644;-72
2022/09/11 03:31:56;;;;;;;3.60;1.86;;;;;;;12.82;42.84;101213.09;458410;115;922895;-74
2022/09/11 03:33:03;;;;;;;3.37;1.73;;;;;;;12.83;42.94;101218.36;458408;115;922875;-74
2022/09/11 03:34:06;;;;;;;2.56;1.67;;;;;;;12.85;42.83;101215.38;456679;115;930269;-73
2022/09/11 03:35:10;;;;;;;3.14;1.89;;;;;;;12.86;42.92;101209.70;455632;116;922608;-72
2022/09/11 03:36:14;;;;;;;2.38;1.78;;;;;;;12.86;42.96;101206.97;455616;116;922711;-72
2022/09/11 03:37:17;;;;;;;2.86;2.21;;;;;;;12.88;42.92;101213.08;455733;116;923048;-73
2022/09/11 03:38:21;;;;;;;3.86;1.90;;;;;;;12.90;42.96;101212.87;447278;118;923652;-73
2022/09/11 03:39:24;;;;;;;3.59;1.66;;;;;;;12.91;42.92;101215.38;447731;116;922707;-73
2022/09/11 03:40:28;;;;;;;3.45;1.79;;;;;;;12.93;42.85;101218.75;455680;116;922563;-73
2022/09/11 03:41:32;;;;;;;2.44;1.96;;;;;;;12.94;42.84;101214.95;455674;116;922593;-73
2022/09/11 03:42:35;;;;;;;2.54;2.01;;;;;;;12.96;42.77;101215.56;455792;116;922534;-73
2022/09/11 03:43:39;;;;;;;3.33;1.54;;;;;;;12.98;42.74;101214.52;455751;116;923087;-73
2022/09/11 03:44:44;;;;;;;4.58;1.99;;;;;;;13.00;42.72;101217.89;447237;118;922724;-74
2022/09/11 03:45:51;;;;;;;2.91;1.72;;;;;;;13.02;42.66;101219.34;447797;116;922726;-73
2022/09/11 03:46:55;;;;;;;2.63;1.57;;;;;;;13.04;42.64;101219.13;455543;116;930334;-74
2022/09/11 03:47:58;;;;;;;4.08;2.08;;;;;;;13.07;42.56;101226.90;455648;116;922493;-73
2022/09/11 03:49:01;;;;;;;3.57;1.91;;;;;;;13.09;42.52;101220.17;455678;116;930432;-73
2022/09/11 03:50:09;;;;;;;2.40;2.09;;;;;;;13.10;42.46;101215.53;455671;116;923465;-73
2022/09/11 03:51:17;;;;;;;2.42;1.88;;;;;;;13.12;42.44;101207.99;455813;116;922751;-74
2022/09/11 03:52:18;;;;;;;1.96;1.68;;;;;;;13.14;42.39;101208.59;456292;116;923012;-73
2022/09/11 03:53:21;;;;;;;4.53;2.35;;;;;;;13.17;42.34;101213.66;456614;116;922605;-73
2022/09/11 03:54:24;;;;;;;4.13;2.01;;;;;;;13.18;42.29;101207.94;456569;116;922574;-74
2022/09/11 03:55:27;;;;;;;4.33;2.01;;;;;;;13.21;42.29;101203.94;456547;116;922750;-74
2022/09/11 03:56:30;;;;;;;4.49;1.96;;;;;;;13.23;42.20;101201.84;456603;116;922506;-73
2022/09/11 03:57:35;;;;;;;4.12;2.09;;;;;;;13.25;42.17;101205.19;456614;116;922456;-73
2022/09/11 03:58:38;;;;;;;3.75;2.23;;;;;;;13.27;42.03;101197.59;453959;116;922900;-73
2022/09/11 03:59:41;;;;;;;4.43;2.08;;;;;;;13.30;42.00;101197.16;448848;118;923167;-72
2022/09/11 04:00:44;;;;;;;3.21;1.82;;;;;;;13.31;41.88;101198.84;440201;120;923141;-73
2022/09/11 04:01:49;;;;;;;4.44;1.90;;;;;;;13.33;41.89;101199.47;440550;118;923111;-73
2022/09/11 04:02:54;;;;;;;3.77;2.13;;;;;;;13.35;41.79;101191.86;448711;118;923108;-73
2022/09/11 04:04:14;;;;;;;9.62;2.34;;;;;;;13.36;41.69;101196.28;448550;118;922548;-72
2022/09/11 04:05:18;;;;;;;3.15;2.21;;;;;;;13.38;41.70;101185.96;448819;118;923517;-73
2022/09/11 04:06:23;;;;;;;3.95;2.32;;;;;;;13.38;41.67;101180.48;448615;118;923065;-72
2022/09/11 04:07:29;;;;;;;2.75;2.01;;;;;;;13.38;41.54;101172.27;447778;118;922582;-72
2022/09/11 04:08:32;;;;;;;5.00;2.24;;;;;;;13.40;41.52;101175.61;447646;118;923272;-72
2022/09/11 04:09:36;;;;;;;3.35;2.31;;;;;;;13.40;41.47;101172.86;448621;118;922634;-72
2022/09/11 04:10:39;;;;;;;2.45;1.82;;;;;;;13.41;41.44;101169.07;448846;118;922686;-72
2022/09/11 04:11:43;;;;;;;6.17;2.09;;;;;;;13.42;41.33;101164.44;448735;118;922835;-72
2022/09/11 04:12:48;;;;;;;5.73;2.24;;;;;;;13.42;41.28;101161.70;448604;118;922555;-72
2022/09/11 04:13:51;;;;;;;3.39;2.08;;;;;;;13.42;41.25;101159.80;447724;118;923065;-72
2022/09/11 04:14:55;;;;;;;3.05;2.36;;;;;;;13.44;41.25;101162.33;447834;118;923023;-72
2022/09/11 04:16:01;;;;;;;3.34;2.04;;;;;;;13.43;41.19;101156.01;448785;118;922833;-73
2022/09/11 04:17:07;;;;;;;3.84;2.14;;;;;;;13.43;41.21;101158.75;448767;118;922998;-72
2022/09/11 04:18:11;;;;;;;4.59;2.14;;;;;;;13.45;41.31;101161.28;440086;120;922543;-72
2022/09/11 04:19:15;;;;;;;5.11;1.99;;;;;;;13.45;41.21;101167.60;440623;118;923568;-73
2022/09/11 04:20:18;;;;;;;3.87;2.04;;;;;;;13.46;41.24;101157.45;448738;118;930666;-72
2022/09/11 04:21:21;;;;;;;5.91;2.18;;;;;;;13.48;41.26;101160.83;448899;118;922940;-72
2022/09/11 04:22:26;;;;;;;2.29;1.83;;;;;;;13.49;41.26;101167.98;448773;118;922528;-72
2022/09/11 04:23:29;;;;;;;3.59;1.98;;;;;;;13.49;41.30;101168.83;448895;118;922635;-73
2022/09/11 04:24:32;;;;;;;4.07;2.07;;;;;;;13.51;41.33;101166.69;448840;118;922909;-72
2022/09/11 04:25:36;;;;;;;5.06;2.11;;;;;;;13.53;41.36;101169.22;448849;117;923044;-73
2022/09/11 04:26:39;;;;;;;3.64;1.99;;;;;;;13.53;41.46;101164.59;448773;118;923021;-70
2022/09/11 04:27:44;;;;;;;2.83;2.12;;;;;;;13.54;41.43;101170.91;447878;118;930390;-72
2022/09/11 04:28:49;;;;;;;3.99;2.10;;;;;;;13.57;41.77;101168.55;448539;118;923204;-73
2022/09/11 04:29:52;;;;;;;3.68;1.99;;;;;;;13.57;41.77;101168.55;441172;119;922702;-72
2022/09/11 04:31:02;;;;;;;4.31;2.08;;;;;;;13.60;41.52;101170.88;444358;116;930849;-72
2022/09/11 04:32:06;;;;;;;4.80;2.00;;;;;;;13.61;41.51;101175.30;456474;116;922615;-73
2022/09/11 04:33:10;;;;;;;3.78;2.40;;;;;;;13.63;41.48;101167.67;456580;116;922529;-73
2022/09/11 04:34:13;;;;;;;4.36;2.16;;;;;;;13.65;41.45;101171.05;451565;116;922753;-73
2022/09/11 04:35:16;;;;;;;2.49;1.76;;;;;;;13.67;41.47;101166.16;451769;116;923025;-72
2022/09/11 04:36:23;;;;;;;3.60;2.01;;;;;;;13.69;41.51;101160.47;456549;116;923016;-72
2022/09/11 04:37:27;;;;;;;3.69;1.92;;;;;;;13.71;41.50;101159.20;457083;116;922537;-73
2022/09/11 04:38:30;;;;;;;3.82;1.72;;;;;;;13.72;41.54;101154.56;457066;116;922955;-72
2022/09/11 04:39:34;;;;;;;2.92;2.10;;;;;;;13.74;41.58;101149.69;457222;116;922843;-73
2022/09/11 04:40:38;;;;;;;3.23;1.98;;;;;;;13.76;41.44;101151.16;448674;118;922746;-73
2022/09/11 04:41:43;;;;;;;3.67;2.34;;;;;;;13.76;41.44;101151.16;449021;116;922683;-73
2022/09/11 04:42:46;;;;;;;3.64;2.22;;;;;;;13.78;41.60;101150.95;457066;116;923160;-72
2022/09/11 04:43:55;;;;;;;4.74;1.92;;;;;;;13.79;41.53;101147.95;457178;116;930364;-72
2022/09/11 04:44:58;;;;;;;2.83;2.13;;;;;;;13.81;41.49;101146.91;457043;116;923361;-73
2022/09/11 04:46:11;;;;;;;3.09;1.91;;;;;;;13.82;41.50;101141.20;457278;116;923104;-72
2022/09/11 04:47:15;;;;;;;3.13;2.17;;;;;;;13.83;41.50;101137.41;457006;116;922741;-72
2022/09/11 04:48:18;;;;;;;4.32;2.14;;;;;;;13.85;41.52;101148.13;456568;116;923369;-71
2022/09/11 04:49:26;;;;;;;2.92;2.04;;;;;;;13.86;41.43;101144.33;456662;115;922999;-72
2022/09/11 04:50:28;;;;;;;3.87;1.90;;;;;;;13.86;41.49;101147.91;456045;116;922538;-74
2022/09/11 04:51:35;;;;;;;2.07;1.67;;;;;;;13.87;41.37;101138.63;453593;116;922831;-72
2022/09/11 04:52:38;;;;;;;5.16;1.78;;;;;;;13.90;41.38;101134.59;456469;116;922570;-73
2022/09/11 04:53:43;;;;;;;4.12;1.76;;;;;;;13.90;41.41;101135.44;447672;118;922589;-72
2022/09/11 04:54:47;;;;;;;5.51;2.10;;;;;;;13.93;41.43;101139.64;448063;116;923020;-72
2022/09/11 04:55:51;;;;;;;2.92;2.15;;;;;;;13.94;41.37;101136.69;456434;116;922579;-73
2022/09/11 04:56:55;;;;;;;2.52;1.91;;;;;;;13.96;41.35;101133.70;456560;116;922545;-71
2022/09/11 04:57:58;;;;;;;6.03;1.74;;;;;;;13.97;41.36;101143.61;447739;118;930420;-71
2022/09/11 04:59:04;;;;;;;2.76;1.94;;;;;;;13.98;41.49;101140.66;444278;118;922601;-73
2022/09/11 05:00:09;;;;;;;6.28;1.95;;;;;;;13.98;41.43;101146.14;448615;118;922829;-71
2022/09/11 05:01:14;;;;;;;2.76;2.03;;;;;;;13.99;41.38;101142.34;448860;118;923013;-71
2022/09/11 05:02:18;;;;;;;4.60;1.77;;;;;;;13.99;41.37;101136.86;448768;118;923049;-73
2022/09/11 05:03:23;;;;;;;4.81;1.93;;;;;;;13.99;41.42;101139.59;448754;118;923555;-74
2022/09/11 05:04:26;;;;;;;4.15;1.81;;;;;;;14.01;41.35;101144.84;448954;117;922445;-73
2022/09/11 05:05:30;;;;;;;2.76;1.97;;;;;;;14.03;41.34;101145.46;442492;120;922672;-73
2022/09/11 05:06:36;;;;;;;2.02;1.61;;;;;;;14.03;41.34;101143.56;442726;118;930463;-73
2022/09/11 05:07:42;;;;;;;3.96;1.70;;;;;;;14.05;41.33;101143.34;448725;118;930369;-73
2022/09/11 05:08:46;;;;;;;4.18;1.90;;;;;;;14.06;41.35;101136.77;448789;117;922941;-73